sensor_id;sensor_type;location;lat;lon;timestamp;pressure;altitude;pressure_sealevel;temperature;humidity
52927;BME280;40783;49.710;8.842;2022-11-30T00:00:20;99407.16;;;6.91;100.00
52927;BME280;40783;49.710;8.842;2022-11-30T00:02:47;99411.97;;;6.97;100.00
52927;BME280;40783;49.710;8.842;2022-11-30T00:05:20;99405.31;;;7.03;100.00
52927;BME280;40783;49.710;8.842;2022-11-30T00:07:46;99406.41;;;7.01;100.00
52927;BME280;40783;49.710;8.842;2022-11-30T00:10:15;99411.25;;;6.95;100.00
52927;BME280;40783;49.710;8.842;2022-11-30T00:12:40;99415.69;;;6.85;100.00
52927;BME280;40783;49.710;8.842;2022-11-30T00:15:10;99417.22;;;6.88;100.00
52927;BME280;40783;49.710;8.842;2022-11-30T00:17:45;99412.59;;;7.01;100.00
52927;BME280;40783;49.710;8.842;2022-11-30T00:20:12;99422.81;;;7.06;100.00
52927;BME280;40783;49.710;8.842;2022-11-30T00:22:41;99409.47;;;6.96;100.00
52927;BME280;40783;49.710;8.842;2022-11-30T00:25:06;99402.41;;;6.85;100.00
52927;BME280;40783;49.710;8.842;2022-11-30T00:27:35;99402.19;;;6.98;100.00
52927;BME280;40783;49.710;8.842;2022-11-30T00:30:00;99399.41;;;7.00;100.00
52927;BME280;40783;49.710;8.842;2022-11-30T00:32:26;99405.06;;;7.06;100.00
52927;BME280;40783;49.710;8.842;2022-11-30T00:34:54;99397.41;;;7.13;100.00
52927;BME280;40783;49.710;8.842;2022-11-30T00:37:20;99397.66;;;7.10;100.00
52927;BME280;40783;49.710;8.842;2022-11-30T00:39:48;99395.84;;;7.10;100.00
52927;BME280;40783;49.710;8.842;2022-11-30T00:42:13;99389.63;;;7.00;100.00
52927;BME280;40783;49.710;8.842;2022-11-30T00:44:41;99404.81;;;6.88;100.00
52927;BME280;40783;49.710;8.842;2022-11-30T00:47:06;99398.22;;;6.92;100.00
52927;BME280;40783;49.710;8.842;2022-11-30T00:49:31;99410.03;;;7.00;100.00
52927;BME280;40783;49.710;8.842;2022-11-30T00:51:58;99407.84;;;7.05;100.00
52927;BME280;40783;49.710;8.842;2022-11-30T00:54:23;99404.16;;;6.96;100.00
52927;BME280;40783;49.710;8.842;2022-11-30T00:56:49;99408.09;;;7.02;100.00
52927;BME280;40783;49.710;8.842;2022-11-30T00:59:14;99406.16;;;7.04;100.00
52927;BME280;40783;49.710;8.842;2022-11-30T01:01:39;99406.03;;;7.05;100.00
52927;BME280;40783;49.710;8.842;2022-11-30T01:04:05;99411.22;;;7.07;100.00
52927;BME280;40783;49.710;8.842;2022-11-30T01:06:30;99416.41;;;7.08;100.00
52927;BME280;40783;49.710;8.842;2022-11-30T01:08:57;99405.63;;;7.10;100.00
52927;BME280;40783;49.710;8.842;2022-11-30T01:11:29;99418.88;;;7.21;100.00
52927;BME280;40783;49.710;8.842;2022-11-30T01:13:56;99420.50;;;7.12;100.00
52927;BME280;40783;49.710;8.842;2022-11-30T01:16:27;99428.28;;;7.04;100.00
52927;BME280;40783;49.710;8.842;2022-11-30T01:18:53;99416.72;;;6.94;100.00
52927;BME280;40783;49.710;8.842;2022-11-30T01:21:23;99429.88;;;6.95;100.00
52927;BME280;40783;49.710;8.842;2022-11-30T01:23:49;99422.03;;;6.94;100.00
52927;BME280;40783;49.710;8.842;2022-11-30T01:26:15;99426.25;;;6.96;100.00
52927;BME280;40783;49.710;8.842;2022-11-30T01:28:41;99427.56;;;7.02;100.00
52927;BME280;40783;49.710;8.842;2022-11-30T01:31:12;99424.31;;;6.98;100.00
52927;BME280;40783;49.710;8.842;2022-11-30T01:33:38;99422.09;;;7.04;100.00
52927;BME280;40783;49.710;8.842;2022-11-30T01:36:07;99413.16;;;7.05;100.00
52927;BME280;40783;49.710;8.842;2022-11-30T01:38:37;99414.63;;;6.97;100.00
52927;BME280;40783;49.710;8.842;2022-11-30T01:41:04;99414.19;;;6.92;100.00
52927;BME280;40783;49.710;8.842;2022-11-30T01:43:49;99415.03;;;6.93;100.00
52927;BME280;40783;49.710;8.842;2022-11-30T01:48:50;99427.47;;;6.92;100.00
52927;BME280;40783;49.710;8.842;2022-11-30T01:51:18;99433.44;;;6.85;100.00
52927;BME280;40783;49.710;8.842;2022-11-30T01:53:44;99425.06;;;6.89;100.00
52927;BME280;40783;49.710;8.842;2022-11-30T01:56:09;99419.75;;;6.89;100.00
52927;BME280;40783;49.710;8.842;2022-11-30T01:58:35;99426.56;;;6.82;100.00
52927;BME280;40783;49.710;8.842;2022-11-30T02:01:00;99423.41;;;6.88;100.00
52927;BME280;40783;49.710;8.842;2022-11-30T02:03:41;99421.19;;;6.93;100.00
52927;BME280;40783;49.710;8.842;2022-11-30T02:06:08;99433.50;;;6.94;100.00
52927;BME280;40783;49.710;8.842;2022-11-30T02:08:34;99424.31;;;6.98;100.00
52927;BME280;40783;49.710;8.842;2022-11-30T02:11:03;99424.91;;;7.02;100.00
52927;BME280;40783;49.710;8.842;2022-11-30T02:13:55;99426.00;;;7.00;100.00
52927;BME280;40783;49.710;8.842;2022-11-30T02:16:34;99429.31;;;6.92;100.00
52927;BME280;40783;49.710;8.842;2022-11-30T02:21:57;99420.53;;;6.80;100.00
52927;BME280;40783;49.710;8.842;2022-11-30T02:27:44;99425.78;;;6.91;100.00
52927;BME280;40783;49.710;8.842;2022-11-30T02:30:09;99428.06;;;6.75;100.00
52927;BME280;40783;49.710;8.842;2022-11-30T02:33:06;99425.38;;;6.75;100.00
52927;BME280;40783;49.710;8.842;2022-11-30T02:35:39;99437.06;;;6.83;100.00
52927;BME280;40783;49.710;8.842;2022-11-30T02:38:07;99431.19;;;6.80;100.00
52927;BME280;40783;49.710;8.842;2022-11-30T02:40:38;99435.97;;;6.86;100.00
52927;BME280;40783;49.710;8.842;2022-11-30T02:43:05;99432.06;;;6.90;100.00
52927;BME280;40783;49.710;8.842;2022-11-30T02:46:01;99427.88;;;6.88;100.00
52927;BME280;40783;49.710;8.842;2022-11-30T02:48:48;99440.19;;;6.89;100.00
52927;BME280;40783;49.710;8.842;2022-11-30T02:51:18;99430.84;;;6.94;100.00
52927;BME280;40783;49.710;8.842;2022-11-30T02:53:45;99431.56;;;6.96;100.00
52927;BME280;40783;49.710;8.842;2022-11-30T02:56:14;99435.19;;;6.95;100.00
52927;BME280;40783;49.710;8.842;2022-11-30T02:58:40;99436.81;;;6.87;100.00
52927;BME280;40783;49.710;8.842;2022-11-30T03:01:05;99436.25;;;6.83;100.00
52927;BME280;40783;49.710;8.842;2022-11-30T03:03:30;99440.31;;;6.87;100.00
52927;BME280;40783;49.710;8.842;2022-11-30T03:05:58;99444.69;;;6.88;100.00
52927;BME280;40783;49.710;8.842;2022-11-30T03:08:23;99437.31;;;6.80;100.00
52927;BME280;40783;49.710;8.842;2022-11-30T03:10:48;99439.88;;;6.82;100.00
52927;BME280;40783;49.710;8.842;2022-11-30T03:13:15;99445.69;;;6.76;100.00
52927;BME280;40783;49.710;8.842;2022-11-30T03:15:43;99447.34;;;6.88;100.00
52927;BME280;40783;49.710;8.842;2022-11-30T03:18:11;99441.31;;;6.86;100.00
52927;BME280;40783;49.710;8.842;2022-11-30T03:20:40;99448.31;;;6.87;100.00
52927;BME280;40783;49.710;8.842;2022-11-30T03:23:10;99446.88;;;6.83;100.00
52927;BME280;40783;49.710;8.842;2022-11-30T03:25:38;99448.81;;;6.81;100.00
52927;BME280;40783;49.710;8.842;2022-11-30T03:28:05;99443.50;;;6.81;100.00
52927;BME280;40783;49.710;8.842;2022-11-30T03:30:33;99450.75;;;6.79;100.00
52927;BME280;40783;49.710;8.842;2022-11-30T03:33:00;99449.31;;;6.75;100.00
52927;BME280;40783;49.710;8.842;2022-11-30T03:35:25;99444.81;;;6.75;100.00
52927;BME280;40783;49.710;8.842;2022-11-30T03:37:51;99450.75;;;6.79;100.00
52927;BME280;40783;49.710;8.842;2022-11-30T03:40:16;99450.50;;;6.82;100.00
52927;BME280;40783;49.710;8.842;2022-11-30T03:42:42;99455.09;;;6.80;100.00
52927;BME280;40783;49.710;8.842;2022-11-30T03:45:10;99454.38;;;6.78;100.00
52927;BME280;40783;49.710;8.842;2022-11-30T03:47:36;99449.88;;;6.78;100.00
52927;BME280;40783;49.710;8.842;2022-11-30T03:50:01;99443.38;;;6.71;100.00
52927;BME280;40783;49.710;8.842;2022-11-30T03:52:26;99450.13;;;6.75;100.00
52927;BME280;40783;49.710;8.842;2022-11-30T03:54:52;99455.84;;;6.71;100.00
52927;BME280;40783;49.710;8.842;2022-11-30T03:57:17;99446.19;;;6.70;100.00
52927;BME280;40783;49.710;8.842;2022-11-30T03:59:42;99448.13;;;6.67;100.00
52927;BME280;40783;49.710;8.842;2022-11-30T04:02:08;99455.13;;;6.68;100.00
52927;BME280;40783;49.710;8.842;2022-11-30T04:04:33;99455.97;;;6.69;100.00
52927;BME280;40783;49.710;8.842;2022-11-30T04:06:58;99456.56;;;6.73;100.00
52927;BME280;40783;49.710;8.842;2022-11-30T04:09:23;99460.69;;;6.65;100.00
52927;BME280;40783;49.710;8.842;2022-11-30T04:11:51;99462.13;;;6.70;100.00
52927;BME280;40783;49.710;8.842;2022-11-30T04:14:19;99457.19;;;6.65;100.00
52927;BME280;40783;49.710;8.842;2022-11-30T04:16:44;99455.38;;;6.65;100.00
52927;BME280;40783;49.710;8.842;2022-11-30T04:19:09;99453.19;;;6.71;100.00
52927;BME280;40783;49.710;8.842;2022-11-30T04:21:37;99459.25;;;6.61;100.00
52927;BME280;40783;49.710;8.842;2022-11-30T04:24:02;99458.16;;;6.64;100.00
52927;BME280;40783;49.710;8.842;2022-11-30T04:26:30;99462.16;;;6.58;100.00
52927;BME280;40783;49.710;8.842;2022-11-30T04:29:02;99466.00;;;6.65;100.00
52927;BME280;40783;49.710;8.842;2022-11-30T04:31:27;99457.66;;;6.70;100.00
52927;BME280;40783;49.710;8.842;2022-11-30T04:33:53;99457.06;;;6.66;100.00
52927;BME280;40783;49.710;8.842;2022-11-30T04:36:21;99460.19;;;6.72;100.00
52927;BME280;40783;49.710;8.842;2022-11-30T04:38:49;99455.47;;;6.75;100.00
52927;BME280;40783;49.710;8.842;2022-11-30T04:41:16;99456.53;;;6.84;100.00
52927;BME280;40783;49.710;8.842;2022-11-30T04:43:42;99454.97;;;6.81;100.00
52927;BME280;40783;49.710;8.842;2022-11-30T04:46:07;99462.81;;;6.83;100.00
52927;BME280;40783;49.710;8.842;2022-11-30T04:48:35;99459.50;;;6.91;100.00
52927;BME280;40783;49.710;8.842;2022-11-30T04:51:05;99460.09;;;6.94;100.00
52927;BME280;40783;49.710;8.842;2022-11-30T04:53:33;99452.50;;;6.90;100.00
52927;BME280;40783;49.710;8.842;2022-11-30T04:56:09;99454.06;;;6.92;100.00
52927;BME280;40783;49.710;8.842;2022-11-30T04:58:35;99450.00;;;6.88;100.00
52927;BME280;40783;49.710;8.842;2022-11-30T05:01:01;99457.56;;;6.93;100.00
52927;BME280;40783;49.710;8.842;2022-11-30T05:03:26;99454.78;;;6.94;100.00
52927;BME280;40783;49.710;8.842;2022-11-30T05:05:52;99462.75;;;6.94;100.00
52927;BME280;40783;49.710;8.842;2022-11-30T05:08:19;99461.47;;;6.89;100.00
52927;BME280;40783;49.710;8.842;2022-11-30T05:10:52;99458.16;;;6.96;100.00
52927;BME280;40783;49.710;8.842;2022-11-30T05:13:17;99461.47;;;6.89;100.00
52927;BME280;40783;49.710;8.842;2022-11-30T05:15:45;99467.09;;;6.95;100.00
52927;BME280;40783;49.710;8.842;2022-11-30T05:18:11;99455.63;;;6.95;100.00
52927;BME280;40783;49.710;8.842;2022-11-30T05:20:36;99459.59;;;7.01;100.00
52927;BME280;40783;49.710;8.842;2022-11-30T05:23:04;99461.28;;;7.02;100.00
52927;BME280;40783;49.710;8.842;2022-11-30T05:25:32;99468.53;;;7.00;100.00
52927;BME280;40783;49.710;8.842;2022-11-30T05:28:02;99472.41;;;6.95;100.00
52927;BME280;40783;49.710;8.842;2022-11-30T05:30:27;99471.25;;;6.88;100.00
52927;BME280;40783;49.710;8.842;2022-11-30T05:32:52;99473.47;;;6.72;100.00
52927;BME280;40783;49.710;8.842;2022-11-30T05:35:18;99473.50;;;6.60;100.00
52927;BME280;40783;49.710;8.842;2022-11-30T05:37:43;99470.75;;;6.62;100.00
52927;BME280;40783;49.710;8.842;2022-11-30T05:40:08;99482.69;;;6.56;100.00
52927;BME280;40783;49.710;8.842;2022-11-30T05:42:34;99474.00;;;6.54;100.00
52927;BME280;40783;49.710;8.842;2022-11-30T05:44:59;99469.78;;;6.51;100.00
52927;BME280;40783;49.710;8.842;2022-11-30T05:47:25;99470.47;;;6.65;100.00
52927;BME280;40783;49.710;8.842;2022-11-30T05:49:53;99477.22;;;6.69;100.00
52927;BME280;40783;49.710;8.842;2022-11-30T05:52:20;99471.91;;;6.69;100.00
52927;BME280;40783;49.710;8.842;2022-11-30T05:54:50;99475.41;;;6.70;100.00
52927;BME280;40783;49.710;8.842;2022-11-30T05:57:15;99475.78;;;6.65;100.00
52927;BME280;40783;49.710;8.842;2022-11-30T05:59:40;99469.63;;;6.64;100.00
52927;BME280;40783;49.710;8.842;2022-11-30T06:02:05;99478.19;;;6.68;100.00
52927;BME280;40783;49.710;8.842;2022-11-30T06:04:32;99468.78;;;6.64;100.00
52927;BME280;40783;49.710;8.842;2022-11-30T06:06:57;99471.06;;;6.68;100.00
52927;BME280;40783;49.710;8.842;2022-11-30T06:09:25;99474.50;;;6.48;100.00
52927;BME280;40783;49.710;8.842;2022-11-30T06:11:50;99474.63;;;6.58;100.00
52927;BME280;40783;49.710;8.842;2022-11-30T06:14:22;99477.59;;;6.64;100.00
52927;BME280;40783;49.710;8.842;2022-11-30T06:16:50;99474.88;;;6.55;100.00
52927;BME280;40783;49.710;8.842;2022-11-30T06:19:18;99477.38;;;6.56;100.00
52927;BME280;40783;49.710;8.842;2022-11-30T06:21:43;99480.91;;;6.57;100.00
52927;BME280;40783;49.710;8.842;2022-11-30T06:24:08;99471.56;;;6.62;100.00
52927;BME280;40783;49.710;8.842;2022-11-30T06:26:34;99476.88;;;6.62;100.00
52927;BME280;40783;49.710;8.842;2022-11-30T06:29:02;99479.41;;;6.64;100.00
52927;BME280;40783;49.710;8.842;2022-11-30T06:31:31;99479.56;;;6.51;100.00
52927;BME280;40783;49.710;8.842;2022-11-30T06:33:57;99474.50;;;6.48;100.00
52927;BME280;40783;49.710;8.842;2022-11-30T06:36:25;99477.28;;;6.58;100.00
52927;BME280;40783;49.710;8.842;2022-11-30T06:38:53;99485.81;;;6.61;100.00
52927;BME280;40783;49.710;8.842;2022-11-30T06:41:19;99479.28;;;6.65;100.00
52927;BME280;40783;49.710;8.842;2022-11-30T06:43:44;99486.06;;;6.70;100.00
52927;BME280;40783;49.710;8.842;2022-11-30T06:46:09;99490.41;;;6.71;100.00
52927;BME280;40783;49.710;8.842;2022-11-30T06:48:37;99475.88;;;6.75;100.00
52927;BME280;40783;49.710;8.842;2022-11-30T06:51:09;99485.16;;;6.80;100.00
52927;BME280;40783;49.710;8.842;2022-11-30T06:53:36;99480.72;;;6.81;100.00
52927;BME280;40783;49.710;8.842;2022-11-30T06:56:06;99475.38;;;6.81;100.00
52927;BME280;40783;49.710;8.842;2022-11-30T06:58:32;99480.34;;;6.74;100.00
52927;BME280;40783;49.710;8.842;2022-11-30T07:01:00;99486.28;;;6.78;100.00
52927;BME280;40783;49.710;8.842;2022-11-30T07:03:28;99490.63;;;6.79;100.00
52927;BME280;40783;49.710;8.842;2022-11-30T07:05:53;99486.28;;;6.78;100.00
52927;BME280;40783;49.710;8.842;2022-11-30T07:08:18;99484.59;;;6.77;100.00
52927;BME280;40783;49.710;8.842;2022-11-30T07:10:45;99490.38;;;6.82;100.00
52927;BME280;40783;49.710;8.842;2022-11-30T07:13:15;99486.03;;;6.81;100.00
52927;BME280;40783;49.710;8.842;2022-11-30T07:15:44;99488.78;;;6.79;100.00
52927;BME280;40783;49.710;8.842;2022-11-30T07:18:12;99491.59;;;6.78;100.00
52927;BME280;40783;49.710;8.842;2022-11-30T07:20:40;99486.28;;;6.78;100.00
52927;BME280;40783;49.710;8.842;2022-11-30T07:23:05;99492.59;;;6.65;100.00
52927;BME280;40783;49.710;8.842;2022-11-30T07:25:50;99489.44;;;6.72;100.00
52927;BME280;40783;49.710;8.842;2022-11-30T07:28:46;99491.84;;;6.75;100.00
52927;BME280;40783;49.710;8.842;2022-11-30T07:31:21;99494.25;;;6.78;100.00
52927;BME280;40783;49.710;8.842;2022-11-30T07:33:50;99500.28;;;6.80;100.00
52927;BME280;40783;49.710;8.842;2022-11-30T07:36:17;99498.09;;;6.85;100.00
52927;BME280;40783;49.710;8.842;2022-11-30T07:38:43;99493.59;;;6.86;100.00
52927;BME280;40783;49.710;8.842;2022-11-30T07:41:08;99489.19;;;6.75;100.00
52927;BME280;40783;49.710;8.842;2022-11-30T07:43:34;99502.34;;;6.65;100.00
52927;BME280;40783;49.710;8.842;2022-11-30T07:46:02;99503.94;;;6.56;100.00
52927;BME280;40783;49.710;8.842;2022-11-30T07:48:30;99496.47;;;6.61;100.00
52927;BME280;40783;49.710;8.842;2022-11-30T07:51:05;99493.06;;;6.59;100.00
52927;BME280;40783;49.710;8.842;2022-11-30T07:53:31;99510.47;;;6.63;100.00
52927;BME280;40783;49.710;8.842;2022-11-30T07:56:07;99510.22;;;6.66;100.00
52927;BME280;40783;49.710;8.842;2022-11-30T07:58:36;99507.81;;;6.63;100.00
52927;BME280;40783;49.710;8.842;2022-11-30T08:01:15;99511.91;;;6.67;100.00
52927;BME280;40783;49.710;8.842;2022-11-30T08:03:41;99511.09;;;6.44;100.00
52927;BME280;40783;49.710;8.842;2022-11-30T08:06:11;99503.00;;;6.46;100.00
52927;BME280;40783;49.710;8.842;2022-11-30T08:08:43;99512.41;;;6.50;100.00
52927;BME280;40783;49.710;8.842;2022-11-30T08:11:13;99513.84;;;6.54;100.00
52927;BME280;40783;49.710;8.842;2022-11-30T08:13:39;99516.03;;;6.60;100.00
52927;BME280;40783;49.710;8.842;2022-11-30T08:16:09;99523.97;;;6.72;100.00
52927;BME280;40783;49.710;8.842;2022-11-30T08:18:38;99512.84;;;6.78;100.00
52927;BME280;40783;49.710;8.842;2022-11-30T08:21:05;99514.78;;;6.76;100.00
52927;BME280;40783;49.710;8.842;2022-11-30T08:23:38;99524.56;;;6.75;100.00
52927;BME280;40783;49.710;8.842;2022-11-30T08:26:10;99524.31;;;6.78;100.00
52927;BME280;40783;49.710;8.842;2022-11-30T08:28:39;99530.97;;;6.84;100.00
52927;BME280;40783;49.710;8.842;2022-11-30T08:31:10;99532.75;;;6.83;100.00
52927;BME280;40783;49.710;8.842;2022-11-30T08:33:38;99531.81;;;6.73;100.00
52927;BME280;40783;49.710;8.842;2022-11-30T08:36:14;99529.38;;;6.81;100.00
52927;BME280;40783;49.710;8.842;2022-11-30T08:38:45;99537.25;;;6.83;100.00
52927;BME280;40783;49.710;8.842;2022-11-30T08:41:15;99545.34;;;6.81;100.00
52927;BME280;40783;49.710;8.842;2022-11-30T08:43:43;99542.09;;;6.78;100.00
52927;BME280;40783;49.710;8.842;2022-11-30T08:46:11;99545.34;;;6.81;100.00
52927;BME280;40783;49.710;8.842;2022-11-30T08:48:37;99552.75;;;6.66;100.00
52927;BME280;40783;49.710;8.842;2022-11-30T08:51:06;99552.25;;;6.73;100.00
52927;BME280;40783;49.710;8.842;2022-11-30T08:53:33;99551.28;;;6.62;100.00
52927;BME280;40783;49.710;8.842;2022-11-30T08:56:03;99553.09;;;6.73;100.00
52927;BME280;40783;49.710;8.842;2022-11-30T08:58:32;99554.91;;;6.73;100.00
52927;BME280;40783;49.710;8.842;2022-11-30T09:01:17;99549.34;;;6.87;100.00
52927;BME280;40783;49.710;8.842;2022-11-30T09:03:45;99558.28;;;6.86;100.00
52927;BME280;40783;49.710;8.842;2022-11-30T09:08:44;99554.66;;;6.87;100.00
52927;BME280;40783;49.710;8.842;2022-11-30T09:13:36;99562.16;;;6.82;100.00
52927;BME280;40783;49.710;8.842;2022-11-30T09:19:11;99560.47;;;6.81;100.00
52927;BME280;40783;49.710;8.842;2022-11-30T09:21:36;99564.09;;;6.80;100.00
52927;BME280;40783;49.710;8.842;2022-11-30T09:24:01;99561.91;;;6.85;100.00
52927;BME280;40783;49.710;8.842;2022-11-30T09:26:30;99559.44;;;6.93;100.00
52927;BME280;40783;49.710;8.842;2022-11-30T09:32:18;99557.75;;;6.92;100.00
52927;BME280;40783;49.710;8.842;2022-11-30T09:34:43;99558.00;;;6.89;100.00
52927;BME280;40783;49.710;8.842;2022-11-30T09:37:11;99560.28;;;6.94;100.00
52927;BME280;40783;49.710;8.842;2022-11-30T09:39:36;99563.69;;;6.96;100.00
52927;BME280;40783;49.710;8.842;2022-11-30T09:50:23;99565.28;;;7.20;100.00
52927;BME280;40783;49.710;8.842;2022-11-30T09:53:01;99562.75;;;7.18;100.00
52927;BME280;40783;49.710;8.842;2022-11-30T09:55:37;99558.16;;;7.20;100.00
52927;BME280;40783;49.710;8.842;2022-11-30T09:58:06;99556.94;;;7.24;100.00
52927;BME280;40783;49.710;8.842;2022-11-30T10:00:33;99570.09;;;7.26;100.00
52927;BME280;40783;49.710;8.842;2022-11-30T10:03:02;99557.88;;;7.35;100.00
52927;BME280;40783;49.710;8.842;2022-11-30T10:05:51;99557.69;;;7.48;100.00
52927;BME280;40783;49.710;8.842;2022-11-30T10:11:22;99556.91;;;7.57;100.00
52927;BME280;40783;49.710;8.842;2022-11-30T10:25:20;99538.59;;;7.64;100.00
52927;BME280;40783;49.710;8.842;2022-11-30T10:27:57;99541.53;;;7.61;100.00
52927;BME280;40783;49.710;8.842;2022-11-30T10:30:31;99536.91;;;7.63;100.00
52927;BME280;40783;49.710;8.842;2022-11-30T10:33:02;99543.22;;;7.62;100.00
52927;BME280;40783;49.710;8.842;2022-11-30T10:35:43;99540.03;;;7.68;100.00
52927;BME280;40783;49.710;8.842;2022-11-30T10:38:20;99534.03;;;7.76;100.00
52927;BME280;40783;49.710;8.842;2022-11-30T10:44:50;99542.44;;;7.71;100.00
52927;BME280;40783;49.710;8.842;2022-11-30T10:46:59;99540.94;;;7.57;100.00
52927;BME280;40783;49.710;8.842;2022-11-30T10:49:28;99540.16;;;7.45;100.00
52927;BME280;40783;49.710;8.842;2022-11-30T10:52:02;99537.94;;;7.50;100.00
52927;BME280;40783;49.710;8.842;2022-11-30T10:54:29;99529.78;;;7.63;100.00
52927;BME280;40783;49.710;8.842;2022-11-30T10:56:58;99528.66;;;7.66;100.00
52927;BME280;40783;49.710;8.842;2022-11-30T10:59:38;99537.81;;;7.73;100.00
52927;BME280;40783;49.710;8.842;2022-11-30T11:02:41;99536.78;;;7.85;100.00
52927;BME280;40783;49.710;8.842;2022-11-30T11:05:26;99525.69;;;7.80;100.00
52927;BME280;40783;49.710;8.842;2022-11-30T11:07:59;99520.88;;;7.74;100.00
52927;BME280;40783;49.710;8.842;2022-11-30T11:13:15;99522.81;;;7.72;100.00
52927;BME280;40783;49.710;8.842;2022-11-30T11:15:55;99516.59;;;7.62;100.00
52927;BME280;40783;49.710;8.842;2022-11-30T11:18:28;99527.19;;;7.52;100.00
52927;BME280;40783;49.710;8.842;2022-11-30T11:23:40;99519.06;;;7.53;100.00
52927;BME280;40783;49.710;8.842;2022-11-30T11:26:15;99515.16;;;7.57;100.00
52927;BME280;40783;49.710;8.842;2022-11-30T11:28:46;99517.06;;;7.46;100.00
52927;BME280;40783;49.710;8.842;2022-11-30T11:31:41;99510.09;;;7.54;100.00
52927;BME280;40783;49.710;8.842;2022-11-30T11:34:31;99515.16;;;7.57;100.00
52927;BME280;40783;49.710;8.842;2022-11-30T11:42:21;99515.09;;;7.48;100.00
52927;BME280;40783;49.710;8.842;2022-11-30T11:44:56;99511.53;;;7.58;100.00
52927;BME280;40783;49.710;8.842;2022-11-30T11:47:27;99521.19;;;7.60;100.00
52927;BME280;40783;49.710;8.842;2022-11-30T11:50:20;99522.81;;;7.72;100.00
52927;BME280;40783;49.710;8.842;2022-11-30T11:52:46;99528.66;;;7.66;100.00
52927;BME280;40783;49.710;8.842;2022-11-30T11:55:19;99521.16;;;7.71;100.00
52927;BME280;40783;49.710;8.842;2022-11-30T12:00:16;99521.91;;;7.62;100.00
52927;BME280;40783;49.710;8.842;2022-11-30T12:03:03;99514.66;;;7.64;100.00
52927;BME280;40783;49.710;8.842;2022-11-30T12:05:59;99513.47;;;7.56;100.00
52927;BME280;40783;49.710;8.842;2022-11-30T12:08:47;99517.75;;;7.69;100.00
52927;BME280;40783;49.710;8.842;2022-11-30T12:11:17;99522.31;;;7.36;100.00
52927;BME280;40783;49.710;8.842;2022-11-30T12:13:45;99523.81;;;7.50;100.00
52927;BME280;40783;49.710;8.842;2022-11-30T12:21:15;99531.44;;;7.43;100.00
52927;BME280;40783;49.710;8.842;2022-11-30T12:30:20;99518.28;;;7.63;100.00
52927;BME280;40783;49.710;8.842;2022-11-30T12:33:12;99519.50;;;7.58;100.00
52927;BME280;40783;49.710;8.842;2022-11-30T12:38:45;99526.78;;;7.35;100.00
52927;BME280;40783;49.710;8.842;2022-11-30T12:52:33;99530.47;;;7.44;100.00
52927;BME280;40783;49.710;8.842;2022-11-30T13:00:24;99523.28;;;7.35;100.00
52927;BME280;40783;49.710;8.842;2022-11-30T13:05:41;99516.06;;;7.25;100.00
52927;BME280;40783;49.710;8.842;2022-11-30T13:08:22;99521.25;;;7.27;100.00
52927;BME280;40783;49.710;8.842;2022-11-30T13:10:59;99522.56;;;7.33;100.00
52927;BME280;40783;49.710;8.842;2022-11-30T13:13:35;99517.09;;;7.34;100.00
52927;BME280;40783;49.710;8.842;2022-11-30T13:16:03;99516.03;;;7.37;100.00
52927;BME280;40783;49.710;8.842;2022-11-30T13:18:30;99522.81;;;7.30;100.00
52927;BME280;40783;49.710;8.842;2022-11-30T13:21:06;99522.81;;;7.30;100.00
52927;BME280;40783;49.710;8.842;2022-11-30T13:26:20;99517.88;;;7.46;100.00
52927;BME280;40783;49.710;8.842;2022-11-30T13:29:01;99529.31;;;7.37;100.00
52927;BME280;40783;49.710;8.842;2022-11-30T13:31:33;99516.19;;;7.45;100.00
52927;BME280;40783;49.710;8.842;2022-11-30T13:34:02;99518.94;;;7.34;100.00
52927;BME280;40783;49.710;8.842;2022-11-30T13:39:25;99520.88;;;7.32;100.00
52927;BME280;40783;49.710;8.842;2022-11-30T13:44:35;99528.66;;;7.23;100.00
52927;BME280;40783;49.710;8.842;2022-11-30T13:47:31;99527.63;;;7.36;100.00
52927;BME280;40783;49.710;8.842;2022-11-30T13:50:14;99531.53;;;7.32;100.00
52927;BME280;40783;49.710;8.842;2022-11-30T14:05:42;99527.63;;;7.36;100.00
52927;BME280;40783;49.710;8.842;2022-11-30T14:10:45;99532.09;;;7.35;100.00
52927;BME280;40783;49.710;8.842;2022-11-30T14:23:12;99544.88;;;7.20;100.00
52927;BME280;40783;49.710;8.842;2022-11-30T14:25:42;99547.75;;;7.28;100.00
52927;BME280;40783;49.710;8.842;2022-11-30T14:28:13;99550.19;;;7.20;100.00
52927;BME280;40783;49.710;8.842;2022-11-30T14:30:43;99545.13;;;7.17;100.00
52927;BME280;40783;49.710;8.842;2022-11-30T14:33:24;99543.84;;;7.33;100.00
52927;BME280;40783;49.710;8.842;2022-11-30T14:35:56;99546.00;;;7.39;100.00
52927;BME280;40783;49.710;8.842;2022-11-30T14:38:28;99547.22;;;7.35;100.00
52927;BME280;40783;49.710;8.842;2022-11-30T14:40:55;99547.75;;;7.28;100.00
52927;BME280;40783;49.710;8.842;2022-11-30T14:43:20;99541.22;;;7.21;100.00
52927;BME280;40783;49.710;8.842;2022-11-30T14:46:03;99542.91;;;7.22;100.00
52927;BME280;40783;49.710;8.842;2022-11-30T14:48:31;99546.34;;;7.13;100.00
52927;BME280;40783;49.710;8.842;2022-11-30T14:50:59;99552.38;;;7.15;100.00
52927;BME280;40783;49.710;8.842;2022-11-30T14:56:47;99543.22;;;6.96;100.00
52927;BME280;40783;49.710;8.842;2022-11-30T14:59:28;99547.59;;;6.97;100.00
52927;BME280;40783;49.710;8.842;2022-11-30T15:02:04;99539.34;;;7.01;100.00
52927;BME280;40783;49.710;8.842;2022-11-30T15:04:36;99537.19;;;6.94;100.00
52927;BME280;40783;49.710;8.842;2022-11-30T15:07:11;99547.13;;;6.92;100.00
52927;BME280;40783;49.710;8.842;2022-11-30T15:09:41;99544.94;;;6.97;100.00
52927;BME280;40783;49.710;8.842;2022-11-30T15:12:08;99554.16;;;6.82;100.00
52927;BME280;40783;49.710;8.842;2022-11-30T15:14:33;99553.53;;;6.90;100.00
52927;BME280;40783;49.710;8.842;2022-11-30T15:17:01;99552.44;;;6.92;100.00
52927;BME280;40783;49.710;8.842;2022-11-30T15:19:29;99554.97;;;6.94;100.00
52927;BME280;40783;49.710;8.842;2022-11-30T15:21:57;99552.91;;;6.97;100.00
52927;BME280;40783;49.710;8.842;2022-11-30T15:24:26;99549.66;;;6.94;100.00